Flight Track Log - Related Links

Times and Time Zones

All times are in EDT time to prevent confusion due to time zone crossing. See the SWA286 flight status page for this flight to view local times or setup timezone preferences in your user account.

Time Position Orientation Groundspeed Altitude Reporting Facility
EDT Latitude Longitude Course Direction KTS MPH feet Rate Location/Type
Fri 03:18:50 PM 40.8167 -73.1333 90° East 162 186 2,000  Level New York TRACON
Fri 03:19:50 PM 40.8500 -73.1000 37° Northeast 260 299 5,400 2,353 Climbing New York TRACON
Fri 03:21:23 PM 40.8592 -72.9450 85° East 310 357 8,000 1,020 Climbing Boston Center
Fri 03:22:23 PM 40.8597 -72.8325 90° East 310 357 8,000  Level Boston Center
Fri 03:23:24 PM 40.8225 -72.7336 116° Southeast 289 333 8,000  Level Boston Center
Fri 03:24:00 PM 40.7667 -72.8871 90° East  Level FlightAware Approximate
Fri 03:24:22 PM 40.7767 -72.6375 122° Southeast 296 341 8,000  Level Boston Center
Fri 03:25:22 PM 40.6978 -72.6208 171° South 290 334 11,200 3,124 Climbing Boston Center
Fri 03:26:23 PM 40.6286 -72.7000 221° Southwest 241 277 14,300 3,550 Climbing Boston Center
Fri 03:27:22 PM 40.5578 -72.7789 220° Southwest 298 343 18,300 3,700 Climbing Boston Center
Fri 03:28:23 PM 40.4739 -72.8711 220° Southwest 336 387 21,700 3,148 Climbing Boston Center
Fri 03:29:24 PM 40.3967 -72.9550 220° Southwest 355 409 24,700 3,025 Climbing Boston Center
Fri 03:30:24 PM 40.3253 -73.0333 220° Southwest 357 411 27,800 1,523 Climbing Boston Center
Fri 03:31:34 PM 40.2497 -73.1197 221° Southwest 328 377 28,000 65 Climbing Boston Center
Fri 03:33:29 PM 40.1261 -73.2608 221° Southwest 281 323 28,000  Level Washington Center
Fri 03:34:29 PM 40.0628 -73.3281 219° Southwest 292 336 28,000  Level Washington Center
Fri 03:35:29 PM 39.9997 -73.3978 220° Southwest 297 342 28,000  Level Washington Center
Fri 03:36:29 PM 39.9403 -73.4617 219° Southwest 303 349 28,000  Level Washington Center
Fri 03:37:29 PM 39.8769 -73.5314 220° Southwest 303 349 28,000  Level Washington Center
Fri 03:38:29 PM 39.8117 -73.6033 220° Southwest 313 360 28,000  Level Washington Center
Fri 03:39:29 PM 39.7461 -73.6728 219° Southwest 313 360 28,000  Level Washington Center
Fri 03:40:29 PM 39.6825 -73.7419 220° Southwest 313 360 28,000  Level Washington Center
Fri 03:41:29 PM 39.6169 -73.8108 219° Southwest 308 354 28,000  Level Washington Center
Fri 03:42:29 PM 39.5553 -73.8769 220° Southwest 308 354 28,000  Level Washington Center
Fri 03:43:29 PM 39.4897 -73.9458 219° Southwest 308 354 28,000 -100 Level Washington Center
Fri 03:44:29 PM 39.4258 -74.0172 221° Southwest 308 354 27,800 -1,100 Descending Washington Center
Fri 03:45:29 PM 39.3622 -74.0856 220° Southwest 308 354 25,800 -2,800 Descending Washington Center
Fri 03:46:29 PM 39.2922 -74.1622 220° Southwest 314 361 22,200 -2,050 Descending Washington Center
Fri 03:47:29 PM 39.2181 -74.2306 216° Southwest 327 376 21,700 -450 Descending Washington Center
Fri 03:48:29 PM 39.1650 -74.3253 234° Southwest 327 376 21,300 -350 Descending Washington Center
Fri 03:49:29 PM 39.1222 -74.4306 242° Southwest 328 377 21,000 -150 Descending Washington Center
Fri 03:50:29 PM 39.0817 -74.5353 244° Southwest 333 383 21,000 -100 Level Washington Center
Fri 03:51:29 PM 39.0408 -74.6403 243° Southwest 333 383 20,800 -600 Descending Washington Center
Fri 03:52:29 PM 39.0019 -74.7394 243° Southwest 328 377 19,800 -950 Descending Washington Center
Fri 03:53:29 PM 38.9608 -74.8414 243° Southwest 323 372 18,900 -1,000 Descending Washington Center
Fri 03:54:29 PM 38.9178 -74.9433 242° Southwest 328 377 17,800 -1,050 Descending Washington Center
Fri 03:55:29 PM 38.8786 -75.0450 244° Southwest 328 377 16,800 -900 Descending Washington Center
Fri 03:56:29 PM 38.8394 -75.1467 244° Southwest 328 377 16,000 -1,050 Descending Washington Center
Fri 03:57:29 PM 38.8086 -75.2506 249° West 323 372 14,700 -1,000 Descending Washington Center
Fri 03:58:29 PM 38.8006 -75.3572 264° West 312 359 14,000 -350 Descending Washington Center
Fri 03:59:29 PM 38.7944 -75.4639 266° West 312 359 14,000  Level Washington Center
Fri 04:00:29 PM 38.7883 -75.5703 266° West 312 359 14,000  Level Washington Center
Fri 04:01:29 PM 38.7819 -75.6822 266° West 312 359 14,000 -300 Level Washington Center
Fri 04:02:29 PM 38.7756 -75.7914 266° West 312 359 13,400 -800 Descending Washington Center
Fri 04:03:29 PM 38.7669 -75.8978 264° West 312 359 12,400 -1,050 Descending Washington Center
Fri 04:04:29 PM 38.7583 -76.0017 264° West 312 359 11,300 -700 Descending Washington Center
Fri 04:05:29 PM 38.7558 -76.1028 268° West 302 348 11,000 -1,020 Descending Washington Center
Fri 04:07:02 PM 38.8167 -76.2333 301° West 266 306 8,700 -1,300 Descending Potomac TRACON
Fri 04:07:29 PM 38.8219 -76.2550 287° West 255 293 8,400 -1,241 Descending Washington Center
Fri 04:08:29 PM 38.8778 -76.3275 315° West 255 293 6,900 -1,650 Descending Washington Center
Fri 04:09:29 PM 38.9211 -76.3947 310° West 250 288 5,100 -1,213 Descending Washington Center
Fri 04:10:03 PM 38.9333 -76.4500 286° West 240 276 5,000 -341 Descending Potomac TRACON
Fri 04:10:57 PM 38.9333 -76.5000 270° West 207 238 4,600 -632 Descending Potomac TRACON
Fri 04:11:57 PM 38.9667 -76.5500 311° West 200 230 3,800 -942 Descending Potomac TRACON
Fri 04:12:58 PM 39.0167 -76.5667 345° North 197 227 2,700 -694 Descending Potomac TRACON
Fri 04:13:58 PM 39.0667 -76.6000 333° Northwest 192 221 2,400 -550 Descending Potomac TRACON
Fri 04:14:58 PM 39.1167 -76.6167 346° North 162 186 1,600 -850 Descending Potomac TRACON
Fri 04:15:58 PM 39.1500 -76.6500 322° Northwest 132 152 700 -900 Descending Potomac TRACON

Login

Don't have an account? Register now (free) for customized features, flight alerts, and more!